createdAt,value
2024-05-09T00:00:46.830Z,13.30
2024-05-09T00:03:14.799Z,13.30
2024-05-09T00:05:45.812Z,13.30
2024-05-09T00:08:13.646Z,13.20
2024-05-09T00:10:41.670Z,13.20
2024-05-09T00:13:11.009Z,13.10
2024-05-09T00:15:39.279Z,13.10
2024-05-09T00:18:08.083Z,13.10
2024-05-09T00:20:39.746Z,13.00
2024-05-09T00:23:13.711Z,13.00
2024-05-09T00:25:45.168Z,13.00
2024-05-09T00:28:14.447Z,12.90
2024-05-09T00:30:42.155Z,12.90
2024-05-09T00:33:10.984Z,12.90
2024-05-09T00:35:39.990Z,12.80
2024-05-09T00:38:08.003Z,12.80
2024-05-09T00:40:40.468Z,12.70
2024-05-09T00:43:14.480Z,12.70
2024-05-09T00:45:43.910Z,12.70
2024-05-09T00:48:17.574Z,12.60
2024-05-09T00:50:48.032Z,12.60
2024-05-09T00:53:18.638Z,12.60
2024-05-09T00:55:47.677Z,12.50
2024-05-09T00:58:20.111Z,12.50
2024-05-09T01:00:49.495Z,12.50
2024-05-09T01:03:17.842Z,12.40
2024-05-09T01:05:45.988Z,12.40
2024-05-09T01:08:14.013Z,12.30
2024-05-09T01:10:44.843Z,12.30
2024-05-09T01:13:13.771Z,12.30
2024-05-09T01:15:41.622Z,12.20
2024-05-09T01:18:12.521Z,12.20
2024-05-09T01:20:44.019Z,12.20
2024-05-09T01:23:15.343Z,12.10
2024-05-09T01:25:45.664Z,12.10
2024-05-09T01:28:14.020Z,12.00
2024-05-09T01:30:41.522Z,12.00
2024-05-09T01:33:11.090Z,12.00
2024-05-09T01:35:41.796Z,12.00
2024-05-09T01:38:13.244Z,11.90
2024-05-09T01:40:41.377Z,11.90
2024-05-09T01:43:10.718Z,11.80
2024-05-09T01:45:40.756Z,11.80
2024-05-09T01:48:10.567Z,11.80
2024-05-09T01:50:41.742Z,11.80
2024-05-09T01:53:13.262Z,11.70
2024-05-09T01:55:41.332Z,11.70
2024-05-09T01:58:09.375Z,11.70
2024-05-09T02:00:41.012Z,11.60
2024-05-09T02:03:16.880Z,11.60
2024-05-09T02:05:47.858Z,11.60
2024-05-09T02:08:21.545Z,11.50
2024-05-09T02:10:50.753Z,11.50
2024-05-09T02:13:18.784Z,11.50
2024-05-09T02:15:46.667Z,11.40
2024-05-09T02:18:14.524Z,11.40
2024-05-09T02:20:43.249Z,11.40
2024-05-09T02:23:12.292Z,11.30
2024-05-09T02:25:41.394Z,11.30
2024-05-09T02:28:09.073Z,11.30
2024-05-09T02:30:40.616Z,11.30
2024-05-09T02:33:12.407Z,11.20
2024-05-09T02:35:43.781Z,11.20
2024-05-09T02:38:12.537Z,11.10
2024-05-09T02:40:40.789Z,11.10
2024-05-09T02:43:11.024Z,11.10
2024-05-09T02:45:40.496Z,11.10
2024-05-09T02:48:13.154Z,11.00
2024-05-09T02:50:41.849Z,11.00
2024-05-09T02:53:10.324Z,11.00
2024-05-09T02:55:42.820Z,10.90
2024-05-09T02:58:11.220Z,10.90
2024-05-09T03:00:41.878Z,10.90
2024-05-09T03:03:13.794Z,10.90
2024-05-09T03:05:47.003Z,10.80
2024-05-09T03:08:15.196Z,10.80
2024-05-09T03:10:43.090Z,10.80
2024-05-09T03:13:14.148Z,10.80
2024-05-09T03:15:43.469Z,10.70
2024-05-09T03:18:11.677Z,10.70
2024-05-09T03:20:40.104Z,10.70
2024-05-09T03:23:09.874Z,10.70
2024-05-09T03:25:39.080Z,10.70
2024-05-09T03:28:07.441Z,10.60
2024-05-09T03:30:40.467Z,10.60
2024-05-09T03:33:19.116Z,10.60
2024-05-09T03:35:48.713Z,10.60
2024-05-09T03:38:17.105Z,10.60
2024-05-09T03:40:47.118Z,10.50
2024-05-09T03:43:15.306Z,10.50
2024-05-09T03:45:48.438Z,10.50
2024-05-09T03:48:16.209Z,10.50
2024-05-09T03:50:43.884Z,10.50
2024-05-09T03:53:14.373Z,10.50
2024-05-09T03:55:42.338Z,10.50
2024-05-09T03:58:12.633Z,10.50
2024-05-09T04:00:41.341Z,10.50
2024-05-09T04:03:11.390Z,10.50
2024-05-09T04:05:44.473Z,10.50
2024-05-09T04:08:15.418Z,10.50
2024-05-09T04:10:43.470Z,10.60
2024-05-09T04:13:11.394Z,10.60
2024-05-09T04:15:39.615Z,10.60
2024-05-09T04:18:07.428Z,10.60
2024-05-09T04:20:39.168Z,10.60
2024-05-09T04:23:13.851Z,10.60
2024-05-09T04:25:46.889Z,10.60
2024-05-09T04:28:14.829Z,10.60
2024-05-09T04:30:43.103Z,10.60
2024-05-09T04:33:13.441Z,10.70
2024-05-09T04:35:45.672Z,10.70
2024-05-09T04:38:14.752Z,10.70
2024-05-09T04:40:42.943Z,10.70
2024-05-09T04:43:20.409Z,10.70
2024-05-09T04:45:48.045Z,10.80
2024-05-09T04:48:16.516Z,10.80
2024-05-09T04:50:44.509Z,10.80
2024-05-09T04:53:17.388Z,10.80
2024-05-09T04:55:45.493Z,10.90
2024-05-09T04:58:13.132Z,10.90
2024-05-09T05:00:41.557Z,10.90
2024-05-09T05:03:14.523Z,10.90
2024-05-09T05:05:45.390Z,10.90
2024-05-09T05:08:19.006Z,11.00
2024-05-09T05:10:48.987Z,11.00
2024-05-09T05:13:20.155Z,11.00
2024-05-09T05:15:56.945Z,11.00
2024-05-09T05:18:29.151Z,11.10
2024-05-09T05:20:58.387Z,11.10
2024-05-09T05:23:26.196Z,11.20
2024-05-09T05:25:55.046Z,11.20
2024-05-09T05:28:23.103Z,11.20
2024-05-09T05:30:50.798Z,11.30
2024-05-09T05:33:19.479Z,11.40
2024-05-09T05:35:47.558Z,11.40
2024-05-09T05:38:15.550Z,11.40
2024-05-09T05:40:43.300Z,11.50
2024-05-09T05:43:18.282Z,11.60
2024-05-09T05:45:47.136Z,11.60
2024-05-09T05:48:18.383Z,11.70
2024-05-09T05:50:46.601Z,11.80
2024-05-09T05:53:14.365Z,11.80
2024-05-09T05:55:42.836Z,11.90
2024-05-09T05:58:11.856Z,12.00
2024-05-09T06:00:41.704Z,12.10
2024-05-09T06:03:12.889Z,12.10
2024-05-09T06:05:43.479Z,12.20
2024-05-09T06:08:12.305Z,12.30
2024-05-09T06:10:41.232Z,12.30
2024-05-09T06:13:11.489Z,12.40
2024-05-09T06:15:43.526Z,12.50
2024-05-09T06:18:12.593Z,12.60
2024-05-09T06:20:43.604Z,12.60
2024-05-09T06:23:12.859Z,12.70
2024-05-09T06:25:42.058Z,12.80
2024-05-09T06:28:09.981Z,12.90
2024-05-09T06:30:40.620Z,13.00
2024-05-09T06:33:13.069Z,13.10
2024-05-09T06:35:42.837Z,13.20
2024-05-09T06:38:10.609Z,13.30
2024-05-09T06:40:43.129Z,13.40
2024-05-09T06:43:13.548Z,13.50
2024-05-09T06:45:41.301Z,13.60
2024-05-09T06:48:10.386Z,13.70
2024-05-09T06:50:39.890Z,13.90
2024-05-09T06:53:09.251Z,14.00
2024-05-09T06:55:38.062Z,14.10
2024-05-09T06:58:09.629Z,14.20
2024-05-09T07:00:40.124Z,14.40
2024-05-09T07:03:16.483Z,14.50
2024-05-09T07:05:47.225Z,14.60
2024-05-09T07:08:16.232Z,14.80
2024-05-09T07:10:44.070Z,14.90
2024-05-09T07:13:14.297Z,15.00
2024-05-09T07:15:42.843Z,15.20
2024-05-09T07:18:17.426Z,15.30
2024-05-09T07:20:46.762Z,15.50
2024-05-09T07:23:15.388Z,15.60
2024-05-09T07:25:43.556Z,15.70
2024-05-09T07:28:17.393Z,15.90
2024-05-09T07:30:45.694Z,16.00
2024-05-09T07:33:23.072Z,16.20
2024-05-09T07:35:52.122Z,16.40
2024-05-09T07:38:19.936Z,16.50
2024-05-09T07:40:47.730Z,16.70
2024-05-09T07:43:15.879Z,16.80
2024-05-09T07:45:51.850Z,17.00
2024-05-09T07:50:01.008Z,17.20
2024-05-09T07:53:49.059Z,17.60
2024-05-09T07:56:22.501Z,17.70
2024-05-09T07:58:54.090Z,17.90
2024-05-09T08:01:22.317Z,18.00
2024-05-09T08:03:50.422Z,18.20
2024-05-09T08:06:18.516Z,18.30
2024-05-09T08:08:47.717Z,18.50
2024-05-09T08:11:15.629Z,18.60
2024-05-09T08:13:43.200Z,18.80
2024-05-09T08:16:10.740Z,19.00
2024-05-09T08:18:39.614Z,19.10
2024-05-09T08:21:07.435Z,19.30
2024-05-09T08:23:36.216Z,19.40
2024-05-09T08:26:03.740Z,19.50
2024-05-09T08:28:31.295Z,19.70
2024-05-09T08:30:59.324Z,19.80
2024-05-09T08:33:27.694Z,20.00
2024-05-09T08:35:55.310Z,20.10
2024-05-09T08:38:22.853Z,20.30
2024-05-09T08:40:50.801Z,20.40
2024-05-09T08:43:20.644Z,20.50
2024-05-09T08:45:51.216Z,20.60
2024-05-09T08:48:20.398Z,20.70
2024-05-09T08:50:52.131Z,20.80
2024-05-09T08:53:20.455Z,21.00
2024-05-09T08:55:51.476Z,21.10
2024-05-09T08:58:19.709Z,21.20
2024-05-09T09:00:48.634Z,21.40
2024-05-09T09:03:20.246Z,21.50
2024-05-09T09:06:02.359Z,21.50
2024-05-09T09:08:29.902Z,21.70
2024-05-09T09:11:01.250Z,21.80
2024-05-09T09:13:29.046Z,21.90
2024-05-09T09:15:59.951Z,22.00
2024-05-09T09:18:30.327Z,22.10
2024-05-09T09:20:58.229Z,22.20
2024-05-09T09:23:30.635Z,22.30
2024-05-09T09:26:01.867Z,22.40
2024-05-09T09:28:29.811Z,22.50
2024-05-09T09:31:04.652Z,22.60
2024-05-09T09:33:32.994Z,22.70
2024-05-09T09:36:03.355Z,22.80
2024-05-09T09:38:35.231Z,22.80
2024-05-09T09:41:08.662Z,22.90
2024-05-09T09:43:37.734Z,23.00
2024-05-09T09:46:09.536Z,23.10
2024-05-09T09:48:41.000Z,23.20
2024-05-09T09:51:09.860Z,23.30
2024-05-09T09:53:38.870Z,23.40
2024-05-09T09:56:10.663Z,23.40
2024-05-09T09:58:41.644Z,23.50
2024-05-09T10:01:09.247Z,23.60
2024-05-09T10:03:37.233Z,23.70
2024-05-09T10:06:06.893Z,23.80
2024-05-09T10:08:36.723Z,23.90
2024-05-09T10:11:05.204Z,23.90
2024-05-09T10:13:36.491Z,24.00
2024-05-09T10:16:12.053Z,24.10
2024-05-09T10:18:41.812Z,24.20
2024-05-09T10:21:17.547Z,24.30
2024-05-09T10:24:00.293Z,24.40
2024-05-09T10:26:35.170Z,24.40
2024-05-09T10:29:17.124Z,24.50
2024-05-09T10:31:47.166Z,24.60
2024-05-09T10:34:23.127Z,24.70
2024-05-09T10:36:55.008Z,24.80
2024-05-09T10:39:22.974Z,24.80
2024-05-09T10:41:50.549Z,24.90
2024-05-09T10:44:18.648Z,25.00
2024-05-09T10:46:46.925Z,25.10
2024-05-09T10:49:15.281Z,25.20
2024-05-09T10:51:47.027Z,25.30
2024-05-09T10:54:14.626Z,25.40
2024-05-09T10:56:42.277Z,25.50
2024-05-09T10:59:09.836Z,25.50
2024-05-09T11:01:37.515Z,25.60
2024-05-09T11:04:05.970Z,25.70
2024-05-09T11:06:36.059Z,25.80
2024-05-09T11:09:03.744Z,25.90
2024-05-09T11:11:31.350Z,26.00
2024-05-09T11:13:58.935Z,26.10
2024-05-09T11:16:26.563Z,26.10
2024-05-09T11:18:58.553Z,26.00
2024-05-09T11:21:26.790Z,26.00
2024-05-09T11:23:54.914Z,26.10
2024-05-09T11:26:25.012Z,26.10
2024-05-09T11:28:52.751Z,26.20
2024-05-09T11:31:20.590Z,26.20
2024-05-09T11:33:48.389Z,26.20
2024-05-09T11:36:16.956Z,26.20
2024-05-09T11:38:44.509Z,26.20
2024-05-09T11:41:18.801Z,26.10
2024-05-09T11:43:46.525Z,26.10
2024-05-09T11:46:14.478Z,26.10
2024-05-09T11:48:42.480Z,26.00
2024-05-09T11:51:10.097Z,26.00
2024-05-09T11:53:37.609Z,26.10
2024-05-09T11:56:05.858Z,26.10
2024-05-09T11:58:34.605Z,26.20
2024-05-09T12:01:02.568Z,26.20
2024-05-09T12:03:30.507Z,26.30
2024-05-09T12:05:58.357Z,26.20
2024-05-09T12:08:26.041Z,26.20
2024-05-09T12:10:54.064Z,26.20
2024-05-09T12:13:21.832Z,26.20
2024-05-09T12:15:49.466Z,26.10
2024-05-09T12:18:17.032Z,26.10
2024-05-09T12:20:44.621Z,26.10
2024-05-09T12:23:12.129Z,26.10
2024-05-09T12:25:40.389Z,26.10
2024-05-09T12:28:09.011Z,26.20
2024-05-09T12:30:40.110Z,26.20
2024-05-09T12:33:12.235Z,26.30
2024-05-09T12:35:44.093Z,26.30
2024-05-09T12:38:15.516Z,26.30
2024-05-09T12:40:43.696Z,26.40
2024-05-09T12:43:11.911Z,26.30
2024-05-09T12:45:40.571Z,26.30
2024-05-09T12:48:12.054Z,26.30
2024-05-09T12:50:41.647Z,26.30
2024-05-09T12:53:09.575Z,26.20
2024-05-09T12:55:44.811Z,26.20
2024-05-09T12:58:22.216Z,26.10
2024-05-09T13:00:52.285Z,26.20
2024-05-09T13:03:20.458Z,26.20
2024-05-09T13:05:48.777Z,26.30
2024-05-09T13:08:16.746Z,26.40
2024-05-09T13:10:44.611Z,26.40
2024-05-09T13:13:12.770Z,26.50
2024-05-09T13:15:40.544Z,26.70
2024-05-09T13:18:09.486Z,26.80
2024-05-09T13:20:37.662Z,26.90
2024-05-09T13:23:08.085Z,26.90
2024-05-09T13:25:37.913Z,27.00
2024-05-09T13:28:07.878Z,27.10
2024-05-09T13:30:40.413Z,27.20
2024-05-09T13:33:14.409Z,27.30
2024-05-09T13:35:49.230Z,27.30
2024-05-09T13:38:20.758Z,27.40
2024-05-09T13:40:49.596Z,27.50
2024-05-09T13:43:18.246Z,27.50
2024-05-09T13:45:46.247Z,27.60
2024-05-09T13:48:14.022Z,27.70
2024-05-09T13:50:41.910Z,27.70
2024-05-09T13:53:09.468Z,27.80
2024-05-09T13:55:39.491Z,27.80
2024-05-09T13:58:08.806Z,27.90
2024-05-09T14:00:45.186Z,28.00
2024-05-09T14:03:19.304Z,28.10
2024-05-09T14:05:49.322Z,28.10
2024-05-09T14:08:19.370Z,28.10
2024-05-09T14:10:47.628Z,28.00
2024-05-09T14:13:16.665Z,27.90
2024-05-09T14:15:44.424Z,27.80
2024-05-09T14:18:13.905Z,27.70
2024-05-09T14:20:43.207Z,27.50
2024-05-09T14:23:11.359Z,27.40
2024-05-09T14:25:42.304Z,27.30
2024-05-09T14:28:12.938Z,27.20
2024-05-09T14:30:41.529Z,27.10
2024-05-09T14:33:09.740Z,27.00
2024-05-09T14:35:38.790Z,26.90
2024-05-09T14:38:09.037Z,26.80
2024-05-09T14:40:42.300Z,26.80
2024-05-09T14:43:15.905Z,26.70
2024-05-09T14:45:44.584Z,26.70
2024-05-09T14:48:16.203Z,26.60
2024-05-09T14:50:44.092Z,26.60
2024-05-09T14:53:13.750Z,26.60
2024-05-09T14:55:43.382Z,26.60
2024-05-09T14:58:12.911Z,26.60
2024-05-09T15:00:46.516Z,26.60
2024-05-09T15:03:22.299Z,26.60
2024-05-09T15:05:51.351Z,26.60
2024-05-09T15:08:19.897Z,26.60
2024-05-09T15:10:49.988Z,26.70
2024-05-09T15:13:19.022Z,26.70
2024-05-09T15:15:47.011Z,26.80
2024-05-09T15:18:15.918Z,26.80
2024-05-09T15:20:44.913Z,26.90
2024-05-09T15:23:12.644Z,26.90
2024-05-09T15:25:40.362Z,27.00
2024-05-09T15:28:08.355Z,27.00
2024-05-09T15:30:36.810Z,27.00
2024-05-09T15:33:05.912Z,27.00
2024-05-09T15:35:34.592Z,27.00
2024-05-09T15:38:03.761Z,27.00
2024-05-09T15:40:38.877Z,27.00
2024-05-09T15:43:10.884Z,27.00
2024-05-09T15:45:41.110Z,27.10
2024-05-09T15:48:10.571Z,27.00
2024-05-09T15:50:41.412Z,27.00
2024-05-09T15:53:12.122Z,27.00
2024-05-09T15:55:41.211Z,26.90
2024-05-09T15:58:09.018Z,26.80
2024-05-09T16:00:40.593Z,26.80
2024-05-09T16:03:12.390Z,26.70
2024-05-09T16:05:41.651Z,26.60
2024-05-09T16:08:09.989Z,26.50
2024-05-09T16:10:43.421Z,26.50
2024-05-09T16:13:12.465Z,26.40
2024-05-09T16:15:40.334Z,26.40
2024-05-09T16:18:08.591Z,26.40
2024-05-09T16:20:40.238Z,26.30
2024-05-09T16:23:10.121Z,26.30
2024-05-09T16:25:38.271Z,26.30
2024-05-09T16:28:09.918Z,26.20
2024-05-09T16:30:41.859Z,26.20
2024-05-09T16:33:10.890Z,26.10
2024-05-09T16:35:39.377Z,26.10
2024-05-09T16:38:07.409Z,26.00
2024-05-09T16:40:39.204Z,26.00
2024-05-09T16:43:10.741Z,25.90
2024-05-09T16:45:41.283Z,25.90
2024-05-09T16:48:09.566Z,25.80
2024-05-09T16:50:38.230Z,25.80
2024-05-09T16:53:06.837Z,25.80
2024-05-09T16:55:38.493Z,25.70
2024-05-09T16:58:08.229Z,25.60
2024-05-09T17:00:41.297Z,25.60
2024-05-09T17:03:14.810Z,25.50
2024-05-09T17:05:43.924Z,25.40
2024-05-09T17:08:12.616Z,25.30
2024-05-09T17:10:40.245Z,25.30
2024-05-09T17:13:08.441Z,25.20
2024-05-09T17:15:37.556Z,25.10
2024-05-09T17:18:07.708Z,25.00
2024-05-09T17:20:37.601Z,25.00
2024-05-09T17:23:13.541Z,24.90
2024-05-09T17:25:42.204Z,24.80
2024-05-09T17:28:10.989Z,24.70
2024-05-09T17:30:40.741Z,24.70
2024-05-09T17:33:11.024Z,24.60
2024-05-09T17:35:39.580Z,24.60
2024-05-09T17:38:07.322Z,24.50
2024-05-09T17:40:37.387Z,24.50
2024-05-09T17:43:09.285Z,24.40
2024-05-09T17:45:42.338Z,24.40
2024-05-09T17:48:12.180Z,24.30
2024-05-09T17:50:41.489Z,24.20
2024-05-09T17:53:10.471Z,24.10
2024-05-09T17:55:38.619Z,24.10
2024-05-09T17:58:06.605Z,24.00
2024-05-09T18:00:39.209Z,24.00
2024-05-09T18:03:14.028Z,23.90
2024-05-09T18:05:43.768Z,23.90
2024-05-09T18:08:12.500Z,23.80
2024-05-09T18:10:41.205Z,23.80
2024-05-09T18:13:10.079Z,23.70
2024-05-09T18:15:38.693Z,23.60
2024-05-09T18:18:07.667Z,23.60
2024-05-09T18:20:43.022Z,23.50
2024-05-09T18:23:16.335Z,23.40
2024-05-09T18:25:46.184Z,23.40
2024-05-09T18:28:14.189Z,23.30
2024-05-09T18:30:42.011Z,23.30
2024-05-09T18:33:13.246Z,23.20
2024-05-09T18:35:45.481Z,23.20
2024-05-09T18:38:13.634Z,23.20
2024-05-09T18:40:43.641Z,23.10
2024-05-09T18:43:12.643Z,23.10
2024-05-09T18:45:40.582Z,23.00
2024-05-09T18:48:12.418Z,23.00
2024-05-09T18:50:41.365Z,23.00
2024-05-09T18:53:12.352Z,22.90
2024-05-09T18:55:42.171Z,22.90
2024-05-09T18:58:09.878Z,22.80
2024-05-09T19:00:40.229Z,22.80
2024-05-09T19:03:12.869Z,22.70
2024-05-09T19:05:43.960Z,22.70
2024-05-09T19:08:12.884Z,22.60
2024-05-09T19:10:40.719Z,22.60
2024-05-09T19:13:12.210Z,22.50
2024-05-09T19:15:42.893Z,22.40
2024-05-09T19:18:13.611Z,22.40
2024-05-09T19:20:42.160Z,22.30
2024-05-09T19:23:11.355Z,22.20
2024-05-09T19:25:38.953Z,22.20
2024-05-09T19:28:06.841Z,22.10
2024-05-09T19:30:39.991Z,22.00
2024-05-09T19:33:13.097Z,21.90
2024-05-09T19:35:41.991Z,21.90
2024-05-09T19:38:09.569Z,21.80
2024-05-09T19:40:37.260Z,21.70
2024-05-09T19:43:06.081Z,21.70
2024-05-09T19:45:35.735Z,21.60
2024-05-09T19:48:05.329Z,21.50
2024-05-09T19:50:41.273Z,21.40
2024-05-09T19:53:12.869Z,21.30
2024-05-09T19:55:42.049Z,21.20
2024-05-09T19:58:12.259Z,21.10
2024-05-09T20:00:42.779Z,21.00
2024-05-09T20:03:14.558Z,20.90
2024-05-09T20:05:45.857Z,20.90
2024-05-09T20:08:14.033Z,20.80
2024-05-09T20:10:41.625Z,20.80
2024-05-09T20:13:09.468Z,20.70
2024-05-09T20:15:37.787Z,20.60
2024-05-09T20:18:06.709Z,20.60
2024-05-09T20:20:39.589Z,20.50
2024-05-09T20:23:11.766Z,20.40
2024-05-09T20:25:39.518Z,20.40
2024-05-09T20:28:07.784Z,20.40
2024-05-09T20:30:36.410Z,20.30
2024-05-09T20:33:09.697Z,20.20
2024-05-09T20:35:37.699Z,20.20
2024-05-09T20:38:05.945Z,20.10
2024-05-09T20:40:37.554Z,20.10
2024-05-09T20:43:09.475Z,20.00
2024-05-09T20:45:37.623Z,20.00
2024-05-09T20:48:06.314Z,19.90
2024-05-09T20:50:39.280Z,19.90
2024-05-09T20:53:14.466Z,19.80
2024-05-09T20:55:44.635Z,19.80
2024-05-09T20:58:13.106Z,19.70
2024-05-09T21:00:44.204Z,19.70
2024-05-09T21:03:16.497Z,19.60
2024-05-09T21:05:45.564Z,19.60
2024-05-09T21:08:13.412Z,19.50
2024-05-09T21:10:41.028Z,19.50
2024-05-09T21:13:08.654Z,19.40
2024-05-09T21:15:36.579Z,19.40
2024-05-09T21:18:05.092Z,19.30
2024-05-09T21:20:34.596Z,19.30
2024-05-09T21:23:02.875Z,19.20
2024-05-09T21:25:32.012Z,19.10
2024-05-09T21:27:59.936Z,19.10
2024-05-09T21:30:37.772Z,19.00
2024-05-09T21:33:11.241Z,19.00
2024-05-09T21:35:41.396Z,18.90
2024-05-09T21:38:09.022Z,18.80
2024-05-09T21:40:38.008Z,18.80
2024-05-09T21:43:09.993Z,18.70
2024-05-09T21:45:37.874Z,18.60
2024-05-09T21:48:07.106Z,18.60
2024-05-09T21:50:40.482Z,18.50
2024-05-09T21:53:11.935Z,18.40
2024-05-09T21:55:40.011Z,18.30
2024-05-09T21:58:07.718Z,18.30
2024-05-09T22:00:38.377Z,18.20
2024-05-09T22:03:11.103Z,18.10
2024-05-09T22:05:43.381Z,18.10
2024-05-09T22:08:11.262Z,18.00
2024-05-09T22:10:39.123Z,17.90
2024-05-09T22:13:07.320Z,17.80
2024-05-09T22:15:40.463Z,17.70
2024-05-09T22:18:10.318Z,17.70
2024-05-09T22:20:46.420Z,17.60
2024-05-09T22:23:15.500Z,17.60
2024-05-09T22:25:43.080Z,17.50
2024-05-09T22:28:10.850Z,17.40
2024-05-09T22:30:39.992Z,17.40
2024-05-09T22:33:10.661Z,17.30
2024-05-09T22:35:40.976Z,17.20
2024-05-09T22:38:09.320Z,17.20
2024-05-09T22:40:45.939Z,17.10
2024-05-09T22:43:23.462Z,17.00
2024-05-09T22:45:56.114Z,16.90
2024-05-09T22:48:25.329Z,16.90
2024-05-09T22:50:54.639Z,16.80
2024-05-09T22:53:26.640Z,16.80
2024-05-09T22:55:54.578Z,16.70
2024-05-09T22:58:23.141Z,16.70
2024-05-09T23:00:51.340Z,16.60
2024-05-09T23:03:21.250Z,16.60
2024-05-09T23:05:49.409Z,16.50
2024-05-09T23:08:16.953Z,16.50
2024-05-09T23:10:44.517Z,16.40
2024-05-09T23:13:12.118Z,16.30
2024-05-09T23:15:39.710Z,16.30
2024-05-09T23:18:09.032Z,16.20
2024-05-09T23:20:39.390Z,16.20
2024-05-09T23:23:10.633Z,16.10
2024-05-09T23:25:40.853Z,16.00
2024-05-09T23:28:08.791Z,16.00
2024-05-09T23:30:39.659Z,15.90
2024-05-09T23:33:11.944Z,15.90
2024-05-09T23:35:42.202Z,15.80
2024-05-09T23:38:09.843Z,15.80
2024-05-09T23:40:40.192Z,15.70
2024-05-09T23:43:11.833Z,15.70
2024-05-09T23:45:40.358Z,15.60
2024-05-09T23:48:08.794Z,15.60
2024-05-09T23:50:38.475Z,15.50
2024-05-09T23:53:09.223Z,15.50
2024-05-09T23:55:38.567Z,15.40
2024-05-09T23:58:07.784Z,15.40
